Time;durP1;ratioP1;P1;durP2;ratioP2;P2;SDS_P1;SDS_P2;PMS_P1;PMS_P2;Temp;Humidity;BMP_temperature;BMP_pressure;BME280_temperature;BME280_humidity;BME280_pressure;Samples;Min_cycle;Max_cycle;Signal;HPM_P1;HPM_P2
2023/01/27 00:00:07;;;;;;;18.38;8.13;;;5.50;99.90;;;;;;4939078;28;20070;-57
2023/01/27 00:02:33;;;;;;;17.10;8.63;;;5.50;99.90;;;;;;4943335;28;20045;-57
2023/01/27 00:04:59;;;;;;;15.13;8.40;;;5.50;99.90;;;;;;4940039;28;20129;-57
2023/01/27 00:07:24;;;;;;;15.32;8.60;;;5.40;99.90;;;;;;4940347;28;20129;-55
2023/01/27 00:09:50;;;;;;;14.85;7.32;;;5.40;99.90;;;;;;4943996;28;20038;-56
2023/01/27 00:15:06;;;;;;;14.63;7.45;;;5.20;99.90;;;;;;4957247;28;20059;-56
2023/01/27 00:17:33;;;;;;;10.25;7.35;;;5.10;99.90;;;;;;4935887;28;20491;-57
2023/01/27 00:19:59;;;;;;;12.88;7.28;;;5.00;99.90;;;;;;4949984;28;20069;-54
2023/01/27 00:25:09;;;;;;;13.80;7.78;;;5.00;99.90;;;;;;4944493;28;20081;-55
2023/01/27 00:27:34;;;;;;;16.88;7.45;;;5.00;99.90;;;;;;4946454;28;20058;-57
2023/01/27 00:30:03;;;;;;;16.15;7.45;;;5.00;99.90;;;;;;4954715;28;20395;-56
2023/01/27 00:35:15;;;;;;;15.55;8.10;;;4.90;99.90;;;;;;4946013;28;20078;-54
2023/01/27 00:37:41;;;;;;;12.77;7.95;;;4.90;99.90;;;;;;4938826;28;20073;-55
2023/01/27 00:40:12;;;;;;;12.48;8.27;;;4.90;99.90;;;;;;4924188;28;20093;-56
2023/01/27 00:42:38;;;;;;;18.73;7.32;;;5.00;99.90;;;;;;4948545;28;20125;-57
2023/01/27 00:47:49;;;;;;;13.25;6.88;;;5.00;99.90;;;;;;4939690;28;20050;-57
2023/01/27 00:50:15;;;;;;;13.98;7.63;;;4.90;99.90;;;;;;4957454;28;20098;-56
2023/01/27 00:52:42;;;;;;;14.07;7.30;;;4.90;99.90;;;;;;4941168;28;20046;-55
2023/01/27 00:55:09;;;;;;;14.50;7.45;;;4.90;99.90;;;;;;4957606;28;20046;-56
2023/01/27 00:57:36;;;;;;;11.98;6.78;;;4.90;99.90;;;;;;4922048;28;20064;-56
2023/01/27 01:00:05;;;;;;;13.05;7.53;;;4.90;99.90;;;;;;4942242;28;20061;-57
2023/01/27 01:02:31;;;;;;;15.07;6.93;;;4.90;99.90;;;;;;4937584;28;20439;-56
2023/01/27 01:04:57;;;;;;;13.68;6.90;;;4.90;99.90;;;;;;4944465;28;20190;-56
2023/01/27 01:07:23;;;;;;;16.45;7.97;;;4.90;99.90;;;;;;4942701;28;20145;-57
2023/01/27 01:09:49;;;;;;;14.05;7.70;;;4.90;99.90;;;;;;4940501;28;20086;-56
2023/01/27 01:12:14;;;;;;;11.75;7.00;;;4.90;99.90;;;;;;4944896;28;20098;-56
2023/01/27 01:14:40;;;;;;;12.55;7.35;;;4.90;99.90;;;;;;4958563;28;20067;-56
2023/01/27 01:17:06;;;;;;;12.57;7.55;;;4.90;99.90;;;;;;4944381;28;20046;-57
2023/01/27 01:19:32;;;;;;;12.77;7.85;;;4.90;99.90;;;;;;4938369;28;20438;-57
2023/01/27 01:21:57;;;;;;;13.38;7.72;;;5.10;99.90;;;;;;4943607;28;20505;-57
2023/01/27 01:24:23;;;;;;;14.40;7.18;;;4.80;99.90;;;;;;4925849;28;20079;-57
2023/01/27 01:26:49;;;;;;;15.82;8.48;;;4.90;99.90;;;;;;4931339;28;20569;-56
2023/01/27 01:29:14;;;;;;;12.82;7.32;;;4.90;99.90;;;;;;4943452;28;20058;-57
2023/01/27 01:31:40;;;;;;;12.73;7.28;;;4.90;99.90;;;;;;4944585;28;20054;-56
2023/01/27 01:34:06;;;;;;;12.90;7.13;;;4.90;99.90;;;;;;4941490;28;20093;-57
2023/01/27 01:36:32;;;;;;;15.95;7.30;;;4.90;99.90;;;;;;4956970;28;20038;-56
2023/01/27 01:38:57;;;;;;;13.93;7.53;;;4.90;99.90;;;;;;4940046;28;20050;-57
2023/01/27 01:41:24;;;;;;;12.45;6.90;;;4.80;99.90;;;;;;4955393;28;20126;-58
2023/01/27 01:43:50;;;;;;;12.38;6.45;;;4.80;99.90;;;;;;4938962;28;20101;-57
2023/01/27 01:46:17;;;;;;;11.00;6.80;;;4.80;99.90;;;;;;4952839;28;20078;-57
2023/01/27 01:48:59;;;;;;;15.32;6.15;;;4.80;99.90;;;;;;4948077;28;20580;-58
2023/01/27 01:51:33;;;;;;;14.93;6.55;;;4.80;99.90;;;;;;4937112;28;20082;-55
2023/01/27 01:54:13;;;;;;;9.70;5.22;;;4.70;99.90;;;;;;4959674;28;20045;-56
2023/01/27 01:56:42;;;;;;;10.00;5.38;;;4.70;99.90;;;;;;4922452;28;20043;-56
2023/01/27 01:59:17;;;;;;;11.35;5.93;;;4.70;99.90;;;;;;4936812;28;20052;-55
2023/01/27 02:01:43;;;;;;;12.77;6.55;;;4.80;99.90;;;;;;4971337;22;20047;-61
2023/01/27 02:04:13;;;;;;;10.77;6.47;;;4.70;99.90;;;;;;4970634;28;20034;-61
2023/01/27 02:06:49;;;;;;;11.05;6.00;;;4.70;99.90;;;;;;4981473;28;20101;-61
2023/01/27 02:09:16;;;;;;;11.40;6.57;;;4.70;99.90;;;;;;4979655;28;20074;-61
2023/01/27 02:11:41;;;;;;;13.23;6.20;;;4.70;99.90;;;;;;4979212;28;20145;-61
2023/01/27 02:14:08;;;;;;;18.15;6.00;;;4.70;99.90;;;;;;4986284;28;20161;-61
2023/01/27 02:16:34;;;;;;;13.50;6.30;;;4.70;99.90;;;;;;4980840;28;20138;-61
2023/01/27 02:19:00;;;;;;;14.45;5.95;;;4.70;99.90;;;;;;4982288;28;20042;-61
2023/01/27 02:21:25;;;;;;;13.57;6.28;;;4.70;99.90;;;;;;4981704;28;20069;-61
2023/01/27 02:23:56;;;;;;;14.65;5.72;;;4.70;99.90;;;;;;4980019;28;20057;-61
2023/01/27 02:26:24;;;;;;;14.90;5.72;;;4.70;99.90;;;;;;4987135;28;20050;-61
2023/01/27 02:28:59;;;;;;;12.13;5.47;;;4.70;99.90;;;;;;4992135;28;20050;-61
2023/01/27 02:31:25;;;;;;;11.05;4.75;;;4.70;99.90;;;;;;4978075;28;20506;-61
2023/01/27 02:33:56;;;;;;;10.70;4.93;;;4.70;99.90;;;;;;4973761;28;20066;-61
2023/01/27 02:36:22;;;;;;;12.57;3.50;;;4.70;99.90;;;;;;4976990;28;20104;-61
2023/01/27 02:38:54;;;;;;;13.52;3.78;;;4.70;99.90;;;;;;4979956;28;20159;-61
2023/01/27 02:41:35;;;;;;;7.95;2.92;;;4.70;99.90;;;;;;4976721;28;20414;-61
2023/01/27 02:44:01;;;;;;;9.15;2.80;;;4.70;99.90;;;;;;4977563;28;20046;-61
2023/01/27 02:46:26;;;;;;;9.55;2.90;;;4.70;99.90;;;;;;4960710;28;20066;-61
2023/01/27 02:48:52;;;;;;;9.70;3.00;;;4.70;99.90;;;;;;4981344;28;20109;-61
2023/01/27 02:51:18;;;;;;;8.40;2.65;;;4.70;99.90;;;;;;4961132;28;20066;-61
2023/01/27 02:53:44;;;;;;;7.75;2.88;;;4.60;99.90;;;;;;4981971;28;20084;-61
2023/01/27 02:56:10;;;;;;;7.15;2.15;;;4.70;99.90;;;;;;4982263;28;20049;-61
2023/01/27 02:58:36;;;;;;;4.95;2.13;;;4.60;99.90;;;;;;4982443;28;20101;-61
2023/01/27 03:01:03;;;;;;;3.90;1.77;;;4.60;99.90;;;;;;4977731;28;20065;-61
2023/01/27 03:03:29;;;;;;;5.93;1.92;;;4.60;99.90;;;;;;4974883;28;20193;-61
2023/01/27 03:05:54;;;;;;;8.32;1.90;;;4.60;99.90;;;;;;4976703;28;20117;-61
2023/01/27 03:08:20;;;;;;;5.28;1.95;;;4.60;99.90;;;;;;4987052;28;20046;-61
2023/01/27 03:10:51;;;;;;;6.43;3.42;;;4.70;99.90;;;;;;4985257;28;20053;-61
2023/01/27 03:13:23;;;;;;;6.18;1.98;;;4.70;99.90;;;;;;4961589;28;20265;-61
2023/01/27 03:18:35;;;;;;;5.78;1.70;;;4.70;99.90;;;;;;4981065;28;20421;-61
2023/01/27 03:21:03;;;;;;;4.75;1.50;;;4.70;99.90;;;;;;4978439;28;20442;-61
2023/01/27 03:23:33;;;;;;;5.13;1.67;;;4.70;99.90;;;;;;4980479;28;20080;-61
2023/01/27 03:25:59;;;;;;;6.00;2.05;;;4.70;99.90;;;;;;4968243;28;20061;-61
2023/01/27 03:28:25;;;;;;;5.03;1.60;;;4.70;99.90;;;;;;4981277;28;20401;-61
2023/01/27 03:30:51;;;;;;;2.92;1.40;;;4.70;99.90;;;;;;4981878;28;20129;-61
2023/01/27 03:33:16;;;;;;;6.63;1.42;;;4.60;99.90;;;;;;4984700;28;20101;-61
2023/01/27 03:35:47;;;;;;;5.18;1.35;;;4.70;99.90;;;;;;4977046;28;20037;-61
2023/01/27 03:46:31;;;;;;;11.98;2.30;;;4.70;99.90;;;;;;4979967;28;20121;-61
2023/01/27 03:48:58;;;;;;;5.57;1.52;;;4.60;99.90;;;;;;4981303;28;20125;-61
2023/01/27 03:51:25;;;;;;;4.75;1.10;;;4.60;99.90;;;;;;4981493;28;20421;-61
2023/01/27 03:53:52;;;;;;;3.08;1.10;;;4.60;99.90;;;;;;4981067;28;20046;-61
2023/01/27 03:56:19;;;;;;;4.13;1.20;;;4.60;99.90;;;;;;4979140;28;20049;-61
2023/01/27 03:58:48;;;;;;;8.10;1.38;;;4.60;99.90;;;;;;4979142;28;20049;-61
2023/01/27 04:01:22;;;;;;;3.75;1.40;;;4.60;99.90;;;;;;4976360;28;20034;-61
2023/01/27 04:06:57;;;;;;;4.15;1.25;;;4.50;99.90;;;;;;4982382;28;20045;-61
2023/01/27 04:09:32;;;;;;;4.88;1.10;;;4.50;99.90;;;;;;4977706;28;20042;-61
2023/01/27 04:12:01;;;;;;;9.18;1.70;;;4.40;99.90;;;;;;4980508;28;20042;-61
2023/01/27 04:14:29;;;;;;;7.35;1.70;;;4.40;99.90;;;;;;4976769;28;20042;-61
2023/01/27 04:17:10;;;;;;;9.85;1.65;;;4.40;99.90;;;;;;4982314;28;20463;-61
2023/01/27 04:19:36;;;;;;;4.88;1.33;;;4.30;99.90;;;;;;4964865;28;20545;-61
2023/01/27 04:22:03;;;;;;;3.38;1.00;;;4.20;99.90;;;;;;4973521;28;20046;-61
2023/01/27 04:24:28;;;;;;;4.38;1.40;;;4.30;99.90;;;;;;4982488;28;20452;-61
2023/01/27 04:27:00;;;;;;;4.80;2.13;;;4.30;99.90;;;;;;4964573;28;20486;-62
2023/01/27 04:29:28;;;;;;;6.10;1.40;;;4.30;99.90;;;;;;4985064;28;20068;-61
2023/01/27 04:31:54;;;;;;;4.68;1.58;;;4.30;99.90;;;;;;4950744;28;20042;-61
2023/01/27 04:34:20;;;;;;;5.15;2.08;;;4.20;99.90;;;;;;4965179;28;20050;-61
2023/01/27 04:36:47;;;;;;;8.85;2.17;;;4.20;99.90;;;;;;4984892;28;20045;-62
2023/01/27 04:39:13;;;;;;;3.60;1.70;;;4.20;99.90;;;;;;4962148;28;20046;-62
2023/01/27 04:41:39;;;;;;;3.85;1.90;;;4.20;99.90;;;;;;4981853;28;20042;-62
2023/01/27 04:44:05;;;;;;;7.15;2.08;;;4.20;99.90;;;;;;4984915;28;20125;-62
2023/01/27 04:46:32;;;;;;;9.02;2.25;;;4.20;99.90;;;;;;4948088;28;20165;-62
2023/01/27 04:48:58;;;;;;;6.90;2.30;;;4.20;99.90;;;;;;4981276;28;20037;-61
2023/01/27 04:51:24;;;;;;;5.60;2.03;;;4.20;99.90;;;;;;4977215;28;20042;-61
2023/01/27 04:53:50;;;;;;;6.43;2.47;;;4.20;99.90;;;;;;4980250;28;20042;-61
2023/01/27 04:56:28;;;;;;;4.22;2.38;;;4.30;99.90;;;;;;4976546;28;20042;-61
2023/01/27 04:58:57;;;;;;;5.65;2.08;;;4.20;99.90;;;;;;4982953;28;20034;-61
2023/01/27 05:01:23;;;;;;;4.82;1.90;;;4.20;99.90;;;;;;4979013;28;20148;-61
2023/01/27 05:03:49;;;;;;;5.85;2.20;;;4.20;99.90;;;;;;4977580;28;20073;-61
2023/01/27 05:06:15;;;;;;;4.35;2.30;;;4.20;99.90;;;;;;4989382;28;20046;-61
2023/01/27 05:08:40;;;;;;;3.90;2.00;;;4.20;99.90;;;;;;4985495;28;20123;-62
2023/01/27 05:11:06;;;;;;;4.82;2.10;;;4.20;99.90;;;;;;4975853;28;20543;-61
2023/01/27 05:13:33;;;;;;;6.72;1.98;;;4.20;99.90;;;;;;4978348;28;20046;-61
2023/01/27 05:16:16;;;;;;;4.95;2.05;;;4.20;99.90;;;;;;4979928;28;20488;-61
2023/01/27 05:18:44;;;;;;;7.05;2.15;;;4.20;99.90;;;;;;4993691;28;20099;-61
2023/01/27 05:21:13;;;;;;;4.90;1.90;;;4.20;99.90;;;;;;4975701;28;20042;-61
2023/01/27 05:23:39;;;;;;;3.60;1.90;;;4.20;99.90;;;;;;4975463;28;20096;-61
2023/01/27 05:26:12;;;;;;;8.05;2.03;;;4.10;99.90;;;;;;4979426;28;20270;-61
2023/01/27 05:28:40;;;;;;;5.38;1.80;;;4.10;99.90;;;;;;4979413;28;20113;-61
2023/01/27 05:31:12;;;;;;;5.72;1.90;;;4.10;99.90;;;;;;4974465;28;20030;-60
2023/01/27 05:33:39;;;;;;;2.58;1.58;;;4.10;99.90;;;;;;4972482;28;20440;-61
2023/01/27 05:36:06;;;;;;;4.93;1.70;;;4.10;99.90;;;;;;4975152;28;20034;-61
2023/01/27 05:38:32;;;;;;;6.20;1.50;;;4.10;99.90;;;;;;4993352;28;20502;-61
2023/01/27 05:41:00;;;;;;;4.00;1.60;;;4.10;99.90;;;;;;4983703;28;20096;-61
2023/01/27 05:43:28;;;;;;;6.00;2.47;;;4.10;99.90;;;;;;4978163;28;20038;-61
2023/01/27 05:46:04;;;;;;;5.15;1.73;;;4.10;99.90;;;;;;4980385;28;20057;-61
2023/01/27 05:48:30;;;;;;;5.10;2.10;;;4.20;99.90;;;;;;4977799;28;20081;-61
2023/01/27 05:50:57;;;;;;;5.47;1.70;;;4.10;99.90;;;;;;4979049;28;20129;-61
2023/01/27 05:53:24;;;;;;;5.10;1.05;;;4.10;99.90;;;;;;4982551;28;20034;-61
2023/01/27 05:55:50;;;;;;;3.47;1.30;;;4.10;99.90;;;;;;4981285;28;20056;-61
2023/01/27 05:58:16;;;;;;;4.60;1.40;;;4.10;99.90;;;;;;4964450;28;20575;-61
2023/01/27 06:00:42;;;;;;;5.90;1.42;;;4.10;99.90;;;;;;4974442;28;20833;-61
2023/01/27 06:03:08;;;;;;;5.45;1.50;;;4.40;99.90;;;;;;4972196;28;20094;-61
2023/01/27 06:05:34;;;;;;;7.95;1.30;;;4.10;99.90;;;;;;4964078;28;20462;-61
2023/01/27 06:07:59;;;;;;;5.50;1.70;;;4.10;99.90;;;;;;4979522;28;20050;-61
2023/01/27 06:10:25;;;;;;;6.72;1.58;;;4.10;99.90;;;;;;4967111;28;20117;-60
2023/01/27 06:12:51;;;;;;;6.78;1.55;;;4.10;99.90;;;;;;4974675;28;20042;-61
2023/01/27 06:15:16;;;;;;;3.92;1.17;;;4.10;99.90;;;;;;4980917;28;20041;-61
2023/01/27 06:17:42;;;;;;;4.60;1.23;;;4.10;99.90;;;;;;4972510;28;20078;-61
2023/01/27 06:20:08;;;;;;;8.23;2.30;;;4.10;99.90;;;;;;4979356;28;20042;-61
2023/01/27 06:22:34;;;;;;;3.33;1.30;;;4.10;99.90;;;;;;4979263;28;20144;-62
2023/01/27 06:25:00;;;;;;;4.80;1.20;;;4.10;99.90;;;;;;4962158;28;20349;-62
2023/01/27 06:27:26;;;;;;;4.28;1.30;;;4.10;99.90;;;;;;4977698;28;20054;-62
2023/01/27 06:29:51;;;;;;;8.48;1.10;;;4.20;99.90;;;;;;4979101;28;20058;-62
2023/01/27 06:32:17;;;;;;;6.47;1.20;;;4.10;99.90;;;;;;4947042;28;20138;-61
2023/01/27 06:34:43;;;;;;;5.22;1.40;;;4.10;99.90;;;;;;4969959;28;20754;-62
2023/01/27 06:37:08;;;;;;;1.92;1.02;;;4.10;99.90;;;;;;4976687;28;20465;-62
2023/01/27 06:39:34;;;;;;;3.70;1.25;;;4.10;99.90;;;;;;4985211;28;20046;-61
2023/01/27 06:42:00;;;;;;;6.03;1.17;;;4.10;99.90;;;;;;4989375;28;20124;-61
2023/01/27 06:44:25;;;;;;;6.15;1.55;;;4.10;99.90;;;;;;4941986;28;20042;-61
2023/01/27 06:46:52;;;;;;;4.15;1.10;;;4.10;99.90;;;;;;4977154;28;20487;-61
2023/01/27 06:49:18;;;;;;;5.85;1.40;;;4.10;99.90;;;;;;4980994;28;20383;-61
2023/01/27 06:51:44;;;;;;;2.75;1.13;;;4.10;99.90;;;;;;4974841;28;20042;-62
2023/01/27 06:54:10;;;;;;;6.38;1.38;;;4.10;99.90;;;;;;4980757;28;20042;-62
2023/01/27 06:56:36;;;;;;;5.88;1.10;;;4.10;99.90;;;;;;4978771;28;20043;-62
2023/01/27 06:59:01;;;;;;;5.68;1.33;;;4.20;99.90;;;;;;4993014;28;20038;-61
2023/01/27 07:01:27;;;;;;;2.20;1.00;;;4.20;99.90;;;;;;4969876;28;20159;-61
2023/01/27 07:03:53;;;;;;;4.65;1.30;;;4.20;99.90;;;;;;4978725;28;20046;-61
2023/01/27 07:06:19;;;;;;;2.97;1.13;;;4.20;99.90;;;;;;4989139;28;20053;-61
2023/01/27 07:08:46;;;;;;;10.75;1.30;;;4.20;99.90;;;;;;4984622;28;20104;-60
2023/01/27 07:11:12;;;;;;;5.57;1.20;;;4.20;99.90;;;;;;4981994;28;20042;-61
2023/01/27 07:13:38;;;;;;;5.65;1.23;;;4.20;99.90;;;;;;4978038;28;20560;-61
2023/01/27 07:16:04;;;;;;;2.40;1.30;;;4.20;99.90;;;;;;4990449;28;20038;-61
2023/01/27 07:18:30;;;;;;;4.35;1.58;;;4.20;99.90;;;;;;4979773;28;20823;-62
2023/01/27 07:20:56;;;;;;;6.82;1.50;;;4.20;99.90;;;;;;4973348;28;20042;-61
2023/01/27 07:23:21;;;;;;;7.20;2.45;;;4.20;99.90;;;;;;4983018;28;20053;-61
2023/01/27 07:25:47;;;;;;;4.40;1.42;;;4.20;99.90;;;;;;4974608;28;20050;-61
2023/01/27 07:28:13;;;;;;;6.05;1.70;;;4.20;99.90;;;;;;4978294;28;20038;-61
2023/01/27 07:30:39;;;;;;;3.83;1.17;;;4.20;99.90;;;;;;4975098;28;20053;-61
2023/01/27 07:33:10;;;;;;;3.75;1.23;;;4.20;99.90;;;;;;4977298;28;20046;-61
2023/01/27 07:35:37;;;;;;;3.17;1.30;;;4.20;99.90;;;;;;4968223;28;20762;-61
2023/01/27 07:38:05;;;;;;;4.75;1.25;;;4.20;99.90;;;;;;4972150;28;20074;-61
2023/01/27 07:40:31;;;;;;;2.38;1.40;;;4.10;99.90;;;;;;4975539;28;20034;-61
2023/01/27 07:43:00;;;;;;;7.82;2.83;;;4.10;99.90;;;;;;4972282;28;20285;-60
2023/01/27 07:45:27;;;;;;;6.32;2.03;;;4.20;99.90;;;;;;4985813;28;20068;-61
2023/01/27 07:47:52;;;;;;;3.90;2.05;;;4.20;99.90;;;;;;4982367;28;20082;-60
2023/01/27 07:50:20;;;;;;;4.65;1.65;;;4.20;99.90;;;;;;4976181;28;20070;-61
2023/01/27 07:52:46;;;;;;;5.63;1.77;;;4.10;99.90;;;;;;4981270;28;20085;-61
2023/01/27 07:55:14;;;;;;;3.63;1.38;;;4.10;99.90;;;;;;4979778;28;20051;-61
2023/01/27 07:57:40;;;;;;;3.75;1.38;;;4.20;99.90;;;;;;4977828;28;20042;-61
2023/01/27 08:00:06;;;;;;;7.28;1.30;;;4.20;99.90;;;;;;4982099;28;20398;-62
2023/01/27 08:02:32;;;;;;;5.68;1.50;;;4.20;99.90;;;;;;4957519;28;20037;-60
2023/01/27 08:04:58;;;;;;;4.72;1.15;;;4.20;99.90;;;;;;4979076;28;20034;-60
2023/01/27 08:07:23;;;;;;;4.95;1.30;;;4.20;99.90;;;;;;4955457;23;20907;-57
2023/01/27 08:09:49;;;;;;;5.97;1.10;;;4.20;99.90;;;;;;4916040;28;20425;-57
2023/01/27 08:12:15;;;;;;;4.47;1.30;;;4.20;99.90;;;;;;4934639;28;20039;-57
2023/01/27 08:14:40;;;;;;;3.00;1.10;;;4.20;99.90;;;;;;4931314;28;20035;-57
2023/01/27 08:17:06;;;;;;;2.08;0.80;;;4.20;99.90;;;;;;4931278;28;20051;-58
2023/01/27 08:19:32;;;;;;;4.03;1.10;;;4.20;99.90;;;;;;4933804;28;20044;-57
2023/01/27 08:21:58;;;;;;;4.20;1.33;;;4.30;99.90;;;;;;4931093;28;20065;-57
2023/01/27 08:24:23;;;;;;;2.08;0.60;;;4.20;99.90;;;;;;4933222;28;20035;-57
2023/01/27 08:26:49;;;;;;;3.38;0.60;;;4.30;99.90;;;;;;4925686;28;20078;-57
2023/01/27 08:29:15;;;;;;;2.25;0.70;;;4.30;99.90;;;;;;4928970;28;20494;-57
2023/01/27 08:31:40;;;;;;;1.23;0.65;;;4.30;99.90;;;;;;4930122;28;20193;-57
2023/01/27 08:34:06;;;;;;;1.98;0.80;;;4.30;99.90;;;;;;4937071;28;20046;-57
2023/01/27 08:36:32;;;;;;;3.00;0.73;;;4.40;99.90;;;;;;4941822;28;20099;-57
2023/01/27 08:38:58;;;;;;;2.72;0.73;;;4.40;99.90;;;;;;4933207;28;20054;-57
2023/01/27 08:41:25;;;;;;;3.63;0.90;;;4.40;99.90;;;;;;4909994;28;20058;-57
2023/01/27 08:43:52;;;;;;;2.17;0.68;;;4.40;99.90;;;;;;4928625;28;20245;-57
2023/01/27 08:46:18;;;;;;;4.20;0.70;;;4.40;99.90;;;;;;4934969;28;20044;-57
2023/01/27 08:48:44;;;;;;;2.28;0.55;;;4.40;99.90;;;;;;4928749;28;20074;-56
2023/01/27 08:51:12;;;;;;;0.90;0.52;;;4.40;99.90;;;;;;4926049;28;20134;-57
2023/01/27 08:53:38;;;;;;;1.02;0.60;;;4.40;99.90;;;;;;4932538;28;20035;-58
2023/01/27 08:56:11;;;;;;;1.80;0.60;;;4.50;99.90;;;;;;4947488;28;20051;-56
2023/01/27 08:58:37;;;;;;;2.63;0.88;;;4.50;99.90;;;;;;4932654;28;20178;-58
2023/01/27 09:01:05;;;;;;;1.75;0.77;;;4.50;99.90;;;;;;4941493;28;20573;-58
2023/01/27 09:03:32;;;;;;;3.72;0.88;;;4.50;99.90;;;;;;4928746;28;20380;-57
2023/01/27 09:06:04;;;;;;;2.63;0.85;;;4.50;99.90;;;;;;4936422;28;20043;-56
2023/01/27 09:08:30;;;;;;;1.17;0.55;;;4.50;99.90;;;;;;4933758;28;20219;-57
2023/01/27 09:10:56;;;;;;;2.85;0.80;;;4.50;99.90;;;;;;4932943;28;20043;-57
2023/01/27 09:13:22;;;;;;;1.77;0.60;;;4.60;99.90;;;;;;4935101;28;20118;-57
2023/01/27 09:15:52;;;;;;;2.63;0.68;;;4.50;99.90;;;;;;4944070;28;20051;-56
2023/01/27 09:18:17;;;;;;;2.88;1.00;;;4.60;99.90;;;;;;4928961;28;20047;-58
2023/01/27 09:20:43;;;;;;;1.27;0.73;;;4.60;99.90;;;;;;4933914;28;20039;-57
2023/01/27 09:23:09;;;;;;;7.32;1.40;;;4.60;99.90;;;;;;4940775;28;20073;-56
2023/01/27 09:25:34;;;;;;;3.50;0.90;;;4.60;99.90;;;;;;4930838;28;20098;-58
2023/01/27 09:28:00;;;;;;;8.05;3.05;;;4.70;99.90;;;;;;4930244;28;20048;-58
2023/01/27 09:30:27;;;;;;;9.18;1.33;;;4.60;99.90;;;;;;4916375;28;20290;-57
2023/01/27 09:32:57;;;;;;;6.22;1.55;;;4.60;99.90;;;;;;4946618;28;20056;-57
2023/01/27 09:35:23;;;;;;;6.82;1.50;;;4.70;99.90;;;;;;4918772;28;20039;-56
2023/01/27 09:37:56;;;;;;;4.68;1.23;;;4.70;99.90;;;;;;4931011;28;20654;-57
2023/01/27 09:40:50;;;;;;;4.97;1.27;;;4.70;99.90;;;;;;4929520;28;20102;-57
2023/01/27 09:43:48;;;;;;;3.72;1.58;;;4.70;99.90;;;;;;4934400;28;20046;-57
2023/01/27 09:46:17;;;;;;;3.95;1.30;;;4.70;99.90;;;;;;4900877;28;20475;-56
2023/01/27 09:48:58;;;;;;;6.40;1.55;;;4.70;99.90;;;;;;4923385;28;20405;-57
2023/01/27 09:51:49;;;;;;;7.85;2.00;;;4.80;99.90;;;;;;4929181;28;20055;-57
2023/01/27 09:55:06;;;;;;;7.68;1.63;;;4.80;99.90;;;;;;4932557;28;20083;-57
2023/01/27 09:57:40;;;;;;;7.35;2.30;;;4.80;99.90;;;;;;4897663;28;20058;-56
2023/01/27 10:00:09;;;;;;;5.75;1.70;;;4.80;99.90;;;;;;4938154;28;20051;-58
2023/01/27 10:03:11;;;;;;;7.70;1.30;;;4.90;99.90;;;;;;4933830;28;20043;-57
2023/01/27 10:05:55;;;;;;;6.60;1.38;;;4.90;99.90;;;;;;4935254;28;20155;-58
2023/01/27 10:08:41;;;;;;;2.95;0.90;;;5.00;99.90;;;;;;4931077;28;20395;-58
2023/01/27 10:11:18;;;;;;;4.53;1.33;;;5.00;99.90;;;;;;4930840;28;20062;-58
2023/01/27 10:14:18;;;;;;;5.55;1.20;;;5.00;99.90;;;;;;4922863;28;20127;-57
2023/01/27 10:17:14;;;;;;;8.50;1.30;;;5.10;99.90;;;;;;4930223;28;20296;-58
2023/01/27 10:19:49;;;;;;;5.00;1.02;;;5.10;99.90;;;;;;4927300;28;20051;-58
2023/01/27 10:22:26;;;;;;;8.02;1.58;;;5.10;99.90;;;;;;4930971;28;20382;-58
2023/01/27 10:25:07;;;;;;;4.43;1.13;;;5.10;99.90;;;;;;4943813;28;20122;-58
2023/01/27 10:27:38;;;;;;;5.45;1.27;;;5.10;99.90;;;;;;4933442;28;20123;-57
2023/01/27 10:30:34;;;;;;;4.30;1.33;;;5.10;99.90;;;;;;4920211;29;20055;-59
2023/01/27 10:33:06;;;;;;;3.42;1.33;;;5.10;99.90;;;;;;4933014;28;20040;-57
2023/01/27 10:35:45;;;;;;;5.80;1.20;;;5.10;99.90;;;;;;4931256;28;20035;-58
2023/01/27 10:38:39;;;;;;;8.10;2.30;;;5.10;99.90;;;;;;4935176;28;20384;-57
2023/01/27 10:41:07;;;;;;;3.75;1.60;;;5.00;99.90;;;;;;4932714;28;20087;-58
2023/01/27 10:43:50;;;;;;;5.25;1.50;;;5.00;99.90;;;;;;4926236;28;20130;-58
2023/01/27 10:46:44;;;;;;;5.43;1.40;;;5.00;99.90;;;;;;4926526;28;20043;-58
2023/01/27 10:49:23;;;;;;;2.45;1.30;;;5.00;99.90;;;;;;4929788;28;20078;-58
2023/01/27 10:52:02;;;;;;;4.20;1.02;;;5.00;99.90;;;;;;4929100;28;20617;-58
2023/01/27 10:54:41;;;;;;;2.28;0.90;;;5.10;99.90;;;;;;4931062;28;20453;-58
2023/01/27 10:57:18;;;;;;;3.67;1.15;;;5.10;99.90;;;;;;4933238;28;20035;-57
2023/01/27 11:00:11;;;;;;;3.97;1.25;;;5.20;99.90;;;;;;4930705;28;20127;-58
2023/01/27 11:02:55;;;;;;;4.88;0.93;;;5.20;99.90;;;;;;4929549;28;20039;-59
2023/01/27 11:05:27;;;;;;;1.67;0.82;;;5.30;99.90;;;;;;4936662;28;20043;-58
2023/01/27 11:08:02;;;;;;;4.13;1.30;;;5.30;99.90;;;;;;4919550;28;20490;-59
2023/01/27 11:13:33;;;;;;;1.55;1.00;;;5.20;99.90;;;;;;4935431;28;20051;-58
2023/01/27 11:16:03;;;;;;;2.83;1.23;;;5.20;99.90;;;;;;4933082;28;20051;-58
2023/01/27 11:18:31;;;;;;;5.15;1.13;;;5.20;99.90;;;;;;4920850;28;20043;-58
2023/01/27 11:21:04;;;;;;;4.30;1.65;;;5.30;99.90;;;;;;4935494;28;20133;-59
2023/01/27 11:23:34;;;;;;;5.72;1.65;;;5.30;99.90;;;;;;4939440;28;20053;-57
2023/01/27 11:26:03;;;;;;;3.33;1.38;;;5.40;99.90;;;;;;4938310;28;20396;-58
2023/01/27 11:28:33;;;;;;;4.03;1.00;;;5.40;99.90;;;;;;4936375;28;20046;-57
2023/01/27 11:31:17;;;;;;;2.75;1.20;;;5.50;99.90;;;;;;4933593;28;20047;-58
2023/01/27 11:33:57;;;;;;;4.05;1.13;;;5.40;99.90;;;;;;4932448;28;20102;-57
2023/01/27 11:36:26;;;;;;;3.65;0.73;;;5.40;99.90;;;;;;4916181;28;20043;-56
2023/01/27 11:38:54;;;;;;;2.35;0.70;;;5.40;99.90;;;;;;4932953;28;20055;-57
2023/01/27 11:41:20;;;;;;;2.55;0.82;;;5.40;99.90;;;;;;4934922;28;20509;-58
2023/01/27 11:43:50;;;;;;;0.47;0.30;;;5.50;99.90;;;;;;4938539;28;20035;-58
2023/01/27 11:46:23;;;;;;;1.73;0.40;;;5.40;99.90;;;;;;4945117;28;20151;-58
2023/01/27 11:48:54;;;;;;;1.10;0.52;;;5.40;99.90;;;;;;4933767;28;20552;-58
2023/01/27 11:51:34;;;;;;;0.90;0.60;;;5.40;99.90;;;;;;4945609;28;20040;-58
2023/01/27 11:54:21;;;;;;;2.97;1.00;;;5.40;99.90;;;;;;4954317;28;20067;-57
2023/01/27 11:56:48;;;;;;;2.92;1.40;;;5.30;99.90;;;;;;4929588;28;20562;-58
2023/01/27 11:59:33;;;;;;;2.67;1.30;;;5.30;99.90;;;;;;4950952;28;20559;-58
2023/01/27 12:02:25;;;;;;;4.28;2.17;;;5.30;99.90;;;;;;4919993;29;20184;-58
2023/01/27 12:05:23;;;;;;;3.15;1.35;;;5.20;99.90;;;;;;4934125;28;20952;-58
2023/01/27 12:07:54;;;;;;;1.80;1.30;;;5.20;99.90;;;;;;4938388;28;20520;-57
2023/01/27 12:10:22;;;;;;;3.35;1.40;;;5.20;99.90;;;;;;4937223;28;20054;-58
2023/01/27 12:12:48;;;;;;;3.50;1.08;;;5.20;99.90;;;;;;4933175;28;20071;-57
2023/01/27 12:15:15;;;;;;;3.28;1.40;;;5.20;99.90;;;;;;4934077;28;20102;-58
2023/01/27 12:17:44;;;;;;;2.00;1.27;;;5.20;99.90;;;;;;4942382;28;20077;-58
2023/01/27 12:20:32;;;;;;;4.70;1.40;;;5.20;99.90;;;;;;4936504;28;20046;-58
2023/01/27 12:23:21;;;;;;;2.97;1.20;;;5.20;99.90;;;;;;4935536;28;20035;-57
2023/01/27 12:25:52;;;;;;;2.70;1.10;;;5.10;99.90;;;;;;4940775;28;20113;-58
2023/01/27 12:28:27;;;;;;;4.43;1.30;;;5.10;99.90;;;;;;4917959;28;20046;-57
2023/01/27 12:31:00;;;;;;;2.88;1.60;;;5.10;99.90;;;;;;4935688;28;20162;-59
2023/01/27 12:33:30;;;;;;;2.38;1.60;;;5.00;99.90;;;;;;4943212;28;20062;-58
2023/01/27 12:36:00;;;;;;;2.50;1.30;;;5.00;99.90;;;;;;4934769;28;20039;-58
2023/01/27 12:38:30;;;;;;;2.92;1.33;;;5.00;99.90;;;;;;4941965;28;20158;-58
2023/01/27 12:41:03;;;;;;;3.13;1.40;;;4.90;99.90;;;;;;4935893;28;20047;-58
2023/01/27 12:43:29;;;;;;;3.08;1.55;;;4.90;99.90;;;;;;4951242;28;20139;-56
2023/01/27 12:46:03;;;;;;;3.22;1.60;;;4.90;99.90;;;;;;4919475;28;20598;-58
2023/01/27 12:48:30;;;;;;;;;;;4.90;99.90;;;;;;4929810;28;20562;-58
2023/01/27 12:51:13;;;;;;;3.67;1.55;;;4.90;99.90;;;;;;4934686;28;19918;-58
2023/01/27 12:53:42;;;;;;;3.25;1.30;;;5.00;99.90;;;;;;4933173;28;20491;-58
2023/01/27 12:56:21;;;;;;;4.15;1.52;;;4.90;99.90;;;;;;4931907;28;20560;-57
2023/01/27 12:58:53;;;;;;;1.65;0.85;;;4.90;99.90;;;;;;4935212;28;20105;-58
2023/01/27 13:01:19;;;;;;;2.33;0.70;;;4.90;99.90;;;;;;4931572;28;20035;-58
2023/01/27 13:03:48;;;;;;;2.15;0.57;;;5.00;99.90;;;;;;4947830;28;20403;-58
2023/01/27 13:06:17;;;;;;;2.00;1.08;;;5.00;99.90;;;;;;4939442;28;20645;-57
2023/01/27 13:08:44;;;;;;;3.45;1.40;;;4.90;99.90;;;;;;4937147;28;20517;-58
2023/01/27 13:11:10;;;;;;;1.95;1.38;;;4.90;99.90;;;;;;4933822;28;20618;-58
2023/01/27 13:13:36;;;;;;;2.22;1.65;;;5.00;99.90;;;;;;4930732;28;20406;-58
2023/01/27 13:16:05;;;;;;;3.35;1.70;;;5.00;99.90;;;;;;4940842;28;20043;-57
2023/01/27 13:18:41;;;;;;;11.32;3.63;;;4.90;99.90;;;;;;4925501;28;20043;-57
2023/01/27 13:21:15;;;;;;;3.58;2.17;;;4.90;99.90;;;;;;4938869;28;20047;-57
2023/01/27 13:23:42;;;;;;;13.18;7.00;;;4.90;99.90;;;;;;4954820;28;20043;-57
2023/01/27 13:26:36;;;;;;;2.83;2.10;;;4.80;99.90;;;;;;4932712;28;20058;-58
2023/01/27 13:29:16;;;;;;;5.05;2.72;;;4.80;99.90;;;;;;4935201;28;20055;-58
2023/01/27 13:31:51;;;;;;;5.95;4.10;;;4.80;99.90;;;;;;4941347;28;20047;-57
2023/01/27 13:34:38;;;;;;;5.68;4.00;;;4.80;99.90;;;;;;4936655;28;20627;-58
2023/01/27 13:37:15;;;;;;;8.82;4.45;;;4.80;99.90;;;;;;4936295;28;20594;-56